• Join FlightAware (Why Join?)
  • Login
  • US Flag 
03:35AM EDT


 

Airport Tracker/Info


-or-


 

Live Flight TrackerFlight Track Log ✈ UPS1295 ✈ 20-May-2013 ✈ KGSP - KSDF

Flight Track Log - Related Links

Times and Time Zones

All times are in EDT time to prevent confusion due to time zone crossing. See the UPS1295 flight status page for this flight to view local times or setup timezone preferences in your user account.

Time Position Orientation Groundspeed Altitude Reporting Facility
EDT Latitude Longitude Course Direction KTS MPH feet Rate Location/Type
01:01AM 35.0510 -82.2530 322° Northwest 299 344 8,400  Level FlightAware
01:02AM 35.0630 -82.2640 323° Northwest 292 336 9,200 1,620 Climbing FlightAware
01:02AM 35.1030 -82.3020 322° Northwest 290 334 9,900 600 Climbing FlightAware
01:03AM 35.1300 -82.3280 322° Northwest 290 334 9,900 3,420 Level FlightAware
01:03AM 35.2080 -82.3940 325° Northwest 386 444 13,900 4,920 Climbing FlightAware
01:04AM 35.2522 -82.4344 323° Northwest 392 451 15,500 3,060 Climbing FlightAware ADS-B
01:04AM 35.2968 -82.4751 323° Northwest 402 463 16,900 2,580 Climbing FlightAware ADS-B
01:05AM 35.3424 -82.5169 323° Northwest 414 476 18,100 2,400 Climbing FlightAware ADS-B
01:05AM 35.3894 -82.5597 323° Northwest 422 486 19,400 2,400 Climbing FlightAware ADS-B
01:06AM 35.4369 -82.6032 323° Northwest 429 494 20,600 2,400 Climbing FlightAware ADS-B
01:06AM 35.4851 -82.6490 322° Northwest 436 502 21,800 2,280 Climbing FlightAware ADS-B
01:07AM 35.5343 -82.6940 323° Northwest 442 509 22,900 2,280 Climbing FlightAware ADS-B
01:07AM 35.5836 -82.7395 323° Northwest 445 512 24,100 2,220 Climbing FlightAware ADS-B
01:08AM 35.6338 -82.7855 323° Northwest 448 516 25,200 2,340 Climbing FlightAware ADS-B
01:08AM 35.6837 -82.8315 323° Northwest 445 512 26,500 2,460 Climbing FlightAware ADS-B
01:09AM 35.7334 -82.8791 322° Northwest 445 512 27,700 2,160 Climbing FlightAware ADS-B
01:10AM 35.7880 -82.9298 323° Northwest 447 514 28,800 1,920 Climbing FlightAware ADS-B
01:10AM 35.8280 -82.9660 324° Northwest 443 510 29,800 1,800 Climbing FlightAware
01:10AM 35.8535 -82.9895 323° Northwest 447 514 30,000 300 Climbing FlightAware ADS-B
01:11AM 35.9035 -83.0371 322° Northwest 446 513 30,000  Level FlightAware ADS-B
01:11AM 35.9537 -83.0832 323° Northwest 442 509 30,000  Level FlightAware ADS-B
01:12AM 36.0036 -83.1303 323° Northwest 440 506 30,000  Level FlightAware ADS-B
01:12AM 36.0535 -83.1774 323° Northwest 437 503 30,000  Level FlightAware ADS-B
01:13AM 36.1040 -83.2243 323° Northwest 439 505 30,000  Level FlightAware ADS-B
01:13AM 36.1532 -83.2702 323° Northwest 442 509 30,000  Level FlightAware ADS-B
01:14AM 36.2022 -83.3162 323° Northwest 443 510 30,000  Level FlightAware ADS-B
01:14AM 36.2512 -83.3639 322° Northwest 440 506 30,000  Level FlightAware ADS-B
01:15AM 36.3012 -83.4112 323° Northwest 440 506 30,000  Level FlightAware ADS-B
01:15AM 36.3515 -83.4588 323° Northwest 439 505 30,000  Level FlightAware ADS-B
01:16AM 36.4003 -83.5047 323° Northwest 439 505 30,000  Level FlightAware ADS-B
01:16AM 36.4494 -83.5508 323° Northwest 440 506 30,000  Level FlightAware ADS-B
01:17AM 36.4986 -83.5968 323° Northwest 441 507 30,000  Level FlightAware ADS-B
01:17AM 36.5479 -83.6448 322° Northwest 442 509 30,000  Level FlightAware ADS-B
01:18AM 36.5975 -83.6913 323° Northwest 443 510 30,000  Level FlightAware ADS-B
01:18AM 36.6471 -83.7396 322° Northwest 443 510 30,000  Level FlightAware ADS-B
01:19AM 36.6975 -83.7878 323° Northwest 443 510 30,000  Level FlightAware ADS-B
01:19AM 36.7467 -83.8347 323° Northwest 444 511 30,000  Level FlightAware ADS-B
01:20AM 36.7993 -83.8850 323° Northwest 445 512 30,000  Level FlightAware ADS-B
01:20AM 36.8497 -83.9334 322° Northwest 446 513 30,000  Level FlightAware ADS-B
01:21AM 36.9000 -83.9823 322° Northwest 445 512 30,000 -1,080 Level FlightAware ADS-B
01:22AM 36.9618 -84.0408 323° Northwest 448 516 28,800 -2,220 Descending FlightAware ADS-B
01:22AM 37.0292 -84.1086 321° Northwest 442 509 27,100 -2,580 Descending FlightAware ADS-B
01:23AM 37.0803 -84.1749 314° West 450 518 25,500 -2,700 Descending FlightAware ADS-B
01:23AM 37.1258 -84.2358 313° West 447 514 24,100 -2,640 Descending FlightAware ADS-B
01:24AM 37.1680 -84.2919 313° West 439 505 22,800 -2,700 Descending FlightAware ADS-B
01:24AM 37.2100 -84.3475 313° West 436 502 21,400 -2,760 Descending FlightAware ADS-B
01:25AM 37.2513 -84.4044 312° West 425 489 20,000 -2,700 Descending FlightAware ADS-B
01:25AM 37.2915 -84.4581 313° West 416 479 18,700 -2,580 Descending FlightAware ADS-B
01:26AM 37.3306 -84.5108 313° West 408 470 17,400 -2,280 Descending FlightAware ADS-B
01:26AM 37.3672 -84.5614 313° West 411 473 16,200 -2,400 Descending Indianapolis Center
01:27AM 37.4417 -84.6650 312° West 399 459 13,600 -960 Descending Indianapolis Center
01:33AM 37.8550 -85.2270 312° West 365 420 10,000 -540 Descending FlightAware
01:34AM 37.9180 -85.3150 312° West 366 421 10,000  Level FlightAware
01:35AM 37.9560 -85.3690 312° West 365 420 10,000  Level FlightAware
01:36AM 38.0150 -85.4520 312° West 366 421 10,000  Level FlightAware
01:36AM 38.0550 -85.5080 312° West 307 353 10,000 -360 Level FlightAware
01:37AM 38.0680 -85.5250 314° West 294 338 9,700 -2,040 Descending FlightAware
01:37AM 38.0970 -85.5670 311° West 285 328 8,500 -2,400 Descending FlightAware
01:37AM 38.1120 -85.5820 322° Northwest 295 339 7,900 -2,100 Descending FlightAware
01:38AM 38.1450 -85.5990 338° Northwest 285 328 7,100 -1,980 Descending FlightAware
01:38AM 38.1790 -85.6160 339° North 274 315 6,100 -2,040 Descending FlightAware
01:38AM 38.1970 -85.6240 341° North 269 310 5,600 -1,980 Descending FlightAware
01:39AM 38.2280 -85.6350 344° North 268 308 4,800 -1,560 Descending FlightAware
01:39AM 38.2640 -85.6470 345° North 257 296 4,200 -1,200 Descending FlightAware
01:40AM 38.2810 -85.6530 345° North 254 292 3,900 -1,080 Descending FlightAware
01:40AM 38.3060 -85.6680 335° Northwest 227 261 3,500 -900 Descending FlightAware
01:40AM 38.3120 -85.6850 294° West 197 227 3,300 -540 Descending FlightAware
01:41AM 38.3100 -85.7170 265° West 178 205 3,100 -360 Descending FlightAware
01:41AM 38.3150 -85.7420 284° West 162 186 3,000 -120 Descending FlightAware
01:42AM 38.3190 -85.7640 283° West 156 180 3,000  Level FlightAware
01:42AM 38.3130 -85.7770 240° Southwest 139 160 3,000 180 Level FlightAware
01:42AM 38.3060 -85.7790 193° South 139 160 3,100 -600 Climbing FlightAware
01:43AM 38.2870 -85.7800 182° South 144 166 2,600 -840 Descending FlightAware
01:43AM 38.2690 -85.7750 168° South 120 138 2,300 -660 Descending FlightAware
01:44AM 38.2560 -85.7710 166° South 112 129 2,000 -660 Descending FlightAware
01:44AM 38.2400 -85.7660 166° South 118 136 1,700 -720 Descending FlightAware
01:44AM 38.2320 -85.7640 169° South 121 139 1,500 -780 Descending FlightAware
01:45AM 38.2170 -85.7590 165° South 124 143 1,200 -780 Descending FlightAware
01:45AM 38.2100 -85.7560 161° South 123 142 1,000 -780 Descending FlightAware
01:45AM 38.1950 -85.7520 168° South 125 144 700 -600 Descending FlightAware
01:46AM 38.1870 -85.7490 164° South 127 146 600 -420 Descending FlightAware